createdAt,value
2018-08-04T00:01:00.345Z,7.23
2018-08-04T00:04:04.561Z,6.77
2018-08-04T00:07:08.817Z,6.20
2018-08-04T00:10:19.860Z,8.73
2018-08-04T00:13:24.092Z,7.23
2018-08-04T00:16:28.320Z,5.83
2018-08-04T00:19:32.661Z,6.00
2018-08-04T00:22:36.847Z,6.13
2018-08-04T00:25:41.064Z,7.23
2018-08-04T00:28:45.266Z,6.27
2018-08-04T00:31:49.488Z,7.13
2018-08-04T00:34:53.705Z,7.47
2018-08-04T00:37:57.924Z,7.43
2018-08-04T00:41:02.161Z,6.33
2018-08-04T00:44:06.385Z,7.67
2018-08-04T00:47:10.613Z,8.10
2018-08-04T00:50:14.808Z,9.63
2018-08-04T00:53:19.010Z,8.97
2018-08-04T00:56:23.208Z,7.50
2018-08-04T00:59:27.497Z,9.43
2018-08-04T01:02:31.730Z,10.07
2018-08-04T01:05:35.936Z,9.90
2018-08-04T01:08:40.156Z,8.70
2018-08-04T01:11:44.365Z,8.70
2018-08-04T01:14:48.579Z,8.10
2018-08-04T01:17:52.774Z,8.77
2018-08-04T01:20:56.994Z,10.50
2018-08-04T01:24:01.181Z,11.17
2018-08-04T01:27:05.502Z,11.43
2018-08-04T01:30:09.712Z,8.37
2018-08-04T01:33:13.948Z,10.07
2018-08-04T01:36:18.155Z,11.80
2018-08-04T01:39:22.405Z,10.13
2018-08-04T01:42:26.616Z,10.90
2018-08-04T01:45:30.848Z,10.27
2018-08-04T01:48:35.047Z,13.33
2018-08-04T01:51:39.257Z,12.90
2018-08-04T01:54:43.448Z,9.63
2018-08-04T01:57:47.665Z,13.90
2018-08-04T02:00:51.672Z,12.73
2018-08-04T02:03:55.913Z,10.30
2018-08-04T02:07:00.121Z,9.30
2018-08-04T02:10:04.352Z,10.83
2018-08-04T02:13:08.556Z,9.47
2018-08-04T02:16:12.748Z,9.97
2018-08-04T02:19:16.972Z,13.53
2018-08-04T02:22:21.181Z,11.70
2018-08-04T02:25:25.378Z,8.83
2018-08-04T02:28:29.608Z,10.83
2018-08-04T02:31:33.841Z,11.13
2018-08-04T02:34:38.041Z,10.80
2018-08-04T02:37:42.254Z,11.70
2018-08-04T02:40:46.479Z,13.83
2018-08-04T02:43:50.697Z,10.77
2018-08-04T02:46:55.068Z,12.57
2018-08-04T02:49:59.272Z,11.93
2018-08-04T02:53:03.844Z,11.47
2018-08-04T02:56:08.102Z,11.70
2018-08-04T02:59:12.347Z,10.80
2018-08-04T03:02:16.559Z,11.13
2018-08-04T03:05:20.785Z,10.57
2018-08-04T03:08:25.121Z,14.63
2018-08-04T03:11:29.237Z,16.70
2018-08-04T03:14:33.465Z,14.90
2018-08-04T03:17:37.648Z,12.43
2018-08-04T03:20:41.867Z,12.83
2018-08-04T03:23:46.082Z,11.67
2018-08-04T03:26:50.313Z,11.97
2018-08-04T03:29:54.561Z,14.47
2018-08-04T03:32:58.784Z,11.93
2018-08-04T03:36:03.015Z,13.90
2018-08-04T03:39:09.969Z,12.10
2018-08-04T03:42:14.212Z,11.20
2018-08-04T03:45:18.404Z,10.67
2018-08-04T03:48:22.645Z,10.53
2018-08-04T03:51:26.866Z,10.70
2018-08-04T03:54:31.107Z,12.10
2018-08-04T03:57:35.312Z,10.83
2018-08-04T04:00:39.536Z,11.60
2018-08-04T04:03:43.732Z,10.73
2018-08-04T04:06:47.989Z,14.30
2018-08-04T04:09:52.260Z,15.93
2018-08-04T04:12:56.467Z,17.40
2018-08-04T04:16:00.697Z,18.00
2018-08-04T04:19:04.908Z,19.40
2018-08-04T04:22:09.142Z,20.87
2018-08-04T04:25:13.337Z,21.27
2018-08-04T04:28:17.549Z,19.43
2018-08-04T04:31:21.748Z,22.70
2018-08-04T04:34:26.017Z,22.50
2018-08-04T04:37:30.281Z,24.57
2018-08-04T04:40:34.520Z,24.10
2018-08-04T04:43:38.761Z,25.47
2018-08-04T04:46:42.989Z,27.30
2018-08-04T04:49:47.218Z,25.50
2018-08-04T04:52:51.629Z,26.03
2018-08-04T04:55:55.849Z,25.97
2018-08-04T04:59:00.041Z,25.10
2018-08-04T05:02:04.318Z,24.73
2018-08-04T05:05:09.294Z,25.30
2018-08-04T05:08:13.533Z,24.10
2018-08-04T05:11:17.728Z,25.73
2018-08-04T05:14:21.952Z,21.97
2018-08-04T05:17:26.168Z,26.33
2018-08-04T05:20:30.353Z,24.43
2018-08-04T05:23:34.584Z,24.37
2018-08-04T05:26:38.798Z,25.00
2018-08-04T05:29:43.049Z,25.50
2018-08-04T05:32:47.258Z,26.63
2018-08-04T05:35:51.491Z,26.13
2018-08-04T05:38:55.690Z,26.43
2018-08-04T05:41:59.910Z,26.27
2018-08-04T05:45:04.162Z,24.67
2018-08-04T05:48:08.348Z,23.70
2018-08-04T05:51:12.613Z,20.17
2018-08-04T05:54:16.798Z,18.50
2018-08-04T05:57:21.017Z,19.40
2018-08-04T06:00:25.234Z,16.43
2018-08-04T06:03:29.474Z,14.33
2018-08-04T06:06:33.716Z,10.70
2018-08-04T06:09:37.932Z,11.57
2018-08-04T06:12:42.178Z,9.30
2018-08-04T06:15:46.394Z,12.57
2018-08-04T06:18:50.803Z,10.23
2018-08-04T06:21:55.044Z,6.57
2018-08-04T06:24:59.276Z,6.43
2018-08-04T06:28:03.501Z,9.10
2018-08-04T06:31:07.731Z,13.13
2018-08-04T06:34:11.930Z,9.07
2018-08-04T06:37:16.149Z,5.67
2018-08-04T06:40:20.381Z,13.30
2018-08-04T06:43:24.576Z,9.40
2018-08-04T06:46:28.777Z,10.93
2018-08-04T06:49:33.002Z,5.73
2018-08-04T06:52:37.349Z,4.57
2018-08-04T06:55:41.622Z,5.57
2018-08-04T06:58:45.844Z,6.53
2018-08-04T07:01:50.041Z,3.90
2018-08-04T07:04:54.247Z,4.20
2018-08-04T07:07:58.454Z,1.87
2018-08-04T07:11:02.644Z,5.37
2018-08-04T07:14:07.978Z,4.03
2018-08-04T07:17:12.208Z,3.83
2018-08-04T07:20:16.441Z,3.57
2018-08-04T07:23:20.660Z,2.93
2018-08-04T07:26:24.860Z,3.87
2018-08-04T07:29:29.111Z,4.77
2018-08-04T07:32:33.128Z,1.90
2018-08-04T07:35:37.344Z,2.40
2018-08-04T07:38:41.559Z,4.60
2018-08-04T07:41:45.804Z,1.80
2018-08-04T07:44:50.053Z,2.73
2018-08-04T07:47:54.274Z,2.83
2018-08-04T07:50:58.522Z,4.93
2018-08-04T07:54:02.756Z,2.60
2018-08-04T07:57:07.012Z,5.03
2018-08-04T08:00:11.202Z,4.87
2018-08-04T08:03:15.433Z,7.57
2018-08-04T08:06:19.650Z,4.40
2018-08-04T08:09:23.909Z,2.83
2018-08-04T08:12:28.170Z,2.63
2018-08-04T08:15:32.199Z,5.20
2018-08-04T08:18:36.380Z,4.53
2018-08-04T08:21:40.657Z,3.17
2018-08-04T08:24:44.927Z,4.23
2018-08-04T08:27:49.178Z,4.33
2018-08-04T08:30:53.429Z,4.90
2018-08-04T08:33:57.763Z,2.13
2018-08-04T08:37:02.117Z,2.30
2018-08-04T08:40:07.034Z,2.77
2018-08-04T08:43:11.336Z,2.40
2018-08-04T08:46:15.633Z,2.03
2018-08-04T08:49:19.978Z,3.07
2018-08-04T08:52:24.287Z,3.80
2018-08-04T08:55:28.589Z,1.60
2018-08-04T08:58:32.861Z,0.83
2018-08-04T09:01:37.162Z,4.07
2018-08-04T09:04:41.615Z,1.23
2018-08-04T09:07:45.932Z,5.83
2018-08-04T09:10:50.206Z,1.33
2018-08-04T09:13:54.494Z,2.87
2018-08-04T09:16:58.806Z,3.50
2018-08-04T09:20:03.137Z,2.70
2018-08-04T09:23:07.482Z,2.90
2018-08-04T09:26:11.732Z,2.53
2018-08-04T09:29:16.034Z,5.27
2018-08-04T09:32:20.313Z,2.20
2018-08-04T09:35:24.568Z,5.40
2018-08-04T09:38:28.773Z,5.13
2018-08-04T09:41:32.992Z,3.50
2018-08-04T09:44:37.185Z,1.63
2018-08-04T09:47:41.935Z,1.10
2018-08-04T09:50:46.174Z,1.43
2018-08-04T09:53:50.406Z,4.27
2018-08-04T09:56:54.620Z,2.03
2018-08-04T09:59:58.908Z,3.90
2018-08-04T10:03:03.128Z,2.83
2018-08-04T10:06:07.397Z,8.33
2018-08-04T10:09:12.581Z,2.20
2018-08-04T10:12:16.772Z,2.80
2018-08-04T10:15:20.750Z,2.93
2018-08-04T10:18:24.944Z,5.57
2018-08-04T10:21:29.182Z,2.07
2018-08-04T10:24:33.766Z,5.53
2018-08-04T10:27:37.988Z,4.40
2018-08-04T10:30:42.245Z,4.83
2018-08-04T10:33:46.434Z,1.27
2018-08-04T10:36:50.644Z,3.93
2018-08-04T10:39:54.921Z,2.03
2018-08-04T10:42:59.124Z,0.93
2018-08-04T10:46:03.332Z,1.93
2018-08-04T10:49:07.551Z,4.53
2018-08-04T10:52:11.760Z,1.20
2018-08-04T10:55:15.983Z,1.40
2018-08-04T10:58:20.221Z,1.13
2018-08-04T11:01:24.409Z,1.43
2018-08-04T11:04:28.634Z,1.93
2018-08-04T11:07:32.845Z,1.77
2018-08-04T11:10:37.049Z,5.03
2018-08-04T11:13:41.236Z,1.90
2018-08-04T11:16:45.464Z,1.40
2018-08-04T11:19:49.645Z,2.33
2018-08-04T11:22:53.868Z,1.80
2018-08-04T11:25:58.256Z,3.03
2018-08-04T11:29:02.465Z,3.77
2018-08-04T11:32:06.954Z,4.07
2018-08-04T11:35:11.166Z,3.87
2018-08-04T11:38:15.517Z,1.20
2018-08-04T11:41:19.749Z,1.50
2018-08-04T11:44:23.962Z,2.03
2018-08-04T11:47:28.179Z,2.57
2018-08-04T11:50:32.391Z,5.00
2018-08-04T11:53:36.613Z,1.40
2018-08-04T11:56:40.829Z,1.33
2018-08-04T11:59:45.008Z,1.30
2018-08-04T12:02:49.649Z,2.60
2018-08-04T12:05:54.356Z,1.30
2018-08-04T12:08:58.561Z,1.07
2018-08-04T12:12:02.778Z,1.27
2018-08-04T12:15:07.024Z,2.13
2018-08-04T12:18:11.280Z,5.53
2018-08-04T12:21:15.453Z,4.73
2018-08-04T12:24:19.688Z,1.43
2018-08-04T12:27:23.925Z,1.40
2018-08-04T12:30:28.132Z,1.70
2018-08-04T12:33:32.353Z,3.03
2018-08-04T12:36:36.560Z,4.90
2018-08-04T12:39:40.765Z,5.70
2018-08-04T12:42:44.988Z,1.03
2018-08-04T12:45:49.208Z,1.03
2018-08-04T12:48:53.414Z,0.93
2018-08-04T12:51:57.615Z,2.03
2018-08-04T12:55:01.837Z,2.13
2018-08-04T12:58:06.639Z,1.20
2018-08-04T13:01:10.876Z,1.20
2018-08-04T13:04:15.092Z,2.17
2018-08-04T13:07:19.310Z,1.10
2018-08-04T13:10:23.589Z,3.60
2018-08-04T13:13:27.812Z,1.80
2018-08-04T13:16:32.133Z,3.27
2018-08-04T13:19:36.946Z,0.83
2018-08-04T13:22:41.148Z,2.00
2018-08-04T13:25:45.349Z,5.70
2018-08-04T13:28:49.521Z,1.47
2018-08-04T13:31:53.741Z,1.57
2018-08-04T13:34:58.069Z,3.83
2018-08-04T13:38:02.288Z,2.33
2018-08-04T13:41:06.513Z,2.83
2018-08-04T13:44:10.750Z,1.27
2018-08-04T13:47:14.952Z,2.20
2018-08-04T13:50:19.246Z,3.00
2018-08-04T13:53:23.417Z,2.60
2018-08-04T13:56:27.648Z,3.00
2018-08-04T13:59:31.878Z,2.10
2018-08-04T14:02:36.216Z,1.20
2018-08-04T14:05:40.413Z,2.57
2018-08-04T14:08:44.653Z,1.97
2018-08-04T14:11:48.837Z,1.33
2018-08-04T14:14:53.061Z,1.40
2018-08-04T14:17:57.258Z,2.17
2018-08-04T14:21:01.490Z,2.30
2018-08-04T14:24:05.761Z,2.97
2018-08-04T14:27:10.015Z,3.30
2018-08-04T14:30:14.216Z,1.83
2018-08-04T14:33:18.425Z,1.53
2018-08-04T14:36:22.605Z,1.10
2018-08-04T14:39:26.802Z,2.23
2018-08-04T14:42:31.024Z,2.30
2018-08-04T14:45:35.217Z,2.83
2018-08-04T14:48:39.428Z,2.67
2018-08-04T14:51:43.760Z,1.20
2018-08-04T14:54:47.965Z,1.70
2018-08-04T14:57:52.154Z,3.37
2018-08-04T15:00:56.502Z,3.90
2018-08-04T15:04:00.701Z,3.40
2018-08-04T15:07:04.930Z,2.27
2018-08-04T15:10:09.192Z,2.73
2018-08-04T15:13:13.429Z,2.83
2018-08-04T15:16:17.648Z,4.90
2018-08-04T15:19:21.891Z,2.17
2018-08-04T15:22:26.118Z,3.07
2018-08-04T15:25:30.365Z,3.43
2018-08-04T15:28:34.575Z,1.97
2018-08-04T15:31:38.784Z,1.60
2018-08-04T15:34:42.969Z,1.63
2018-08-04T15:37:47.187Z,1.63
2018-08-04T15:40:51.381Z,1.37
2018-08-04T15:43:55.578Z,1.50
2018-08-04T15:46:59.792Z,1.10
2018-08-04T15:50:04.223Z,1.90
2018-08-04T15:53:08.445Z,3.07
2018-08-04T15:56:12.649Z,1.77
2018-08-04T15:59:16.877Z,2.10
2018-08-04T16:02:21.108Z,2.17
2018-08-04T16:05:25.341Z,1.13
2018-08-04T16:08:30.152Z,1.37
2018-08-04T16:11:34.402Z,1.53
2018-08-04T16:14:38.598Z,1.40
2018-08-04T16:17:42.929Z,5.03
2018-08-04T16:20:47.141Z,1.03
2018-08-04T16:23:51.360Z,2.10
2018-08-04T16:26:55.573Z,3.23
2018-08-04T16:29:59.780Z,1.87
2018-08-04T16:33:04.010Z,1.30
2018-08-04T16:36:08.233Z,1.17
2018-08-04T16:39:12.444Z,2.73
2018-08-04T16:42:16.652Z,1.50
2018-08-04T16:45:20.864Z,1.43
2018-08-04T16:48:25.072Z,1.47
2018-08-04T16:51:29.277Z,1.60
2018-08-04T16:54:33.512Z,2.50
2018-08-04T16:57:37.725Z,2.57
2018-08-04T17:00:41.941Z,4.23
2018-08-04T17:03:46.144Z,4.73
2018-08-04T17:06:50.377Z,0.77
2018-08-04T17:09:54.609Z,1.90
2018-08-04T17:12:58.804Z,3.20
2018-08-04T17:16:03.042Z,2.50
2018-08-04T17:19:07.269Z,4.73
2018-08-04T17:22:11.495Z,1.00
2018-08-04T17:25:15.712Z,4.47
2018-08-04T17:28:19.938Z,2.57
2018-08-04T17:31:24.145Z,1.23
2018-08-04T17:34:28.373Z,2.17
2018-08-04T17:37:32.795Z,1.30
2018-08-04T17:40:36.952Z,2.33
2018-08-04T17:43:41.172Z,2.63
2018-08-04T17:46:45.389Z,2.70
2018-08-04T17:49:49.653Z,6.07
2018-08-04T17:52:53.845Z,4.67
2018-08-04T17:55:58.058Z,2.57
2018-08-04T17:59:02.258Z,1.70
2018-08-04T18:02:06.473Z,3.77
2018-08-04T18:05:10.730Z,2.90
2018-08-04T18:08:14.949Z,2.40
2018-08-04T18:11:19.212Z,3.13
2018-08-04T18:14:23.390Z,2.90
2018-08-04T18:17:27.596Z,2.97
2018-08-04T18:20:31.786Z,5.60
2018-08-04T18:23:36.013Z,4.00
2018-08-04T18:26:40.194Z,3.30
2018-08-04T18:29:44.454Z,5.37
2018-08-04T18:32:48.680Z,4.63
2018-08-04T18:35:52.892Z,5.03
2018-08-04T18:38:57.166Z,5.07
2018-08-04T18:42:01.366Z,6.07
2018-08-04T18:45:06.617Z,4.77
2018-08-04T18:48:09.903Z,5.77
2018-08-04T18:51:14.108Z,3.73
2018-08-04T18:54:18.337Z,4.07
2018-08-04T18:57:22.554Z,4.77
2018-08-04T19:00:26.921Z,4.37
2018-08-04T19:03:31.248Z,5.00
2018-08-04T19:06:35.527Z,7.53
2018-08-04T19:09:39.836Z,5.27
2018-08-04T19:12:44.216Z,7.40
2018-08-04T19:15:48.255Z,6.97
2018-08-04T19:18:52.681Z,6.63
2018-08-04T19:21:56.937Z,8.70
2018-08-04T19:25:01.254Z,6.80
2018-08-04T19:28:05.626Z,9.33
2018-08-04T19:31:09.872Z,9.27
2018-08-04T19:34:14.257Z,6.50
2018-08-04T19:37:18.511Z,6.50
2018-08-04T19:40:22.809Z,5.87
2018-08-04T19:43:27.057Z,6.33
2018-08-04T19:46:31.324Z,9.07
2018-08-04T19:49:35.652Z,7.40
2018-08-04T19:52:39.898Z,6.17
2018-08-04T19:55:44.200Z,7.13
2018-08-04T19:58:48.469Z,7.60
2018-08-04T20:01:52.740Z,11.37
2018-08-04T20:04:57.048Z,5.73
2018-08-04T20:08:01.289Z,8.30
2018-08-04T20:11:05.548Z,6.37
2018-08-04T20:14:09.833Z,7.03
2018-08-04T20:17:14.270Z,5.47
2018-08-04T20:20:18.597Z,7.40
2018-08-04T20:23:22.845Z,6.83
2018-08-04T20:26:27.142Z,5.83
2018-08-04T20:29:31.538Z,7.97
2018-08-04T20:32:35.809Z,7.07
2018-08-04T20:35:39.822Z,9.07
2018-08-04T20:38:44.141Z,6.23
2018-08-04T20:41:48.430Z,10.87
2018-08-04T20:44:52.697Z,7.00
2018-08-04T20:47:56.985Z,7.13
2018-08-04T20:51:01.246Z,5.87
2018-08-04T20:54:05.533Z,3.47
2018-08-04T20:57:09.797Z,6.67
2018-08-04T21:00:14.021Z,6.30
2018-08-04T21:03:18.246Z,3.50
2018-08-04T21:06:22.520Z,5.30
2018-08-04T21:09:26.774Z,8.40
2018-08-04T21:12:31.032Z,6.83
2018-08-04T21:15:35.213Z,9.33
2018-08-04T21:18:39.443Z,8.10
2018-08-04T21:21:43.658Z,7.43
2018-08-04T21:24:47.885Z,7.83
2018-08-04T21:27:52.113Z,7.60
2018-08-04T21:30:56.376Z,10.63
2018-08-04T21:34:00.569Z,9.23
2018-08-04T21:37:04.815Z,13.10
2018-08-04T21:40:09.065Z,8.10
2018-08-04T21:43:13.284Z,6.10
2018-08-04T21:46:17.516Z,8.53
2018-08-04T21:49:21.830Z,9.13
2018-08-04T21:52:26.171Z,8.70
2018-08-04T21:55:30.313Z,5.77
2018-08-04T21:58:34.514Z,9.23
2018-08-04T22:01:38.864Z,12.40
2018-08-04T22:04:42.977Z,6.53
2018-08-04T22:08:04.361Z,11.20
2018-08-04T22:11:08.571Z,9.17
2018-08-04T22:14:12.900Z,9.40
2018-08-04T22:17:17.098Z,9.70
2018-08-04T22:20:22.341Z,7.13
2018-08-04T22:23:26.536Z,11.80
2018-08-04T22:26:30.726Z,9.97
2018-08-04T22:29:34.948Z,7.27
2018-08-04T22:32:39.236Z,6.97
2018-08-04T22:35:43.449Z,7.00
2018-08-04T22:38:47.669Z,8.77
2018-08-04T22:41:51.885Z,12.13
2018-08-04T22:45:08.249Z,6.77
2018-08-04T22:48:12.453Z,8.70
2018-08-04T22:51:25.042Z,7.70
2018-08-04T22:54:29.241Z,9.37
2018-08-04T22:57:33.466Z,10.00
2018-08-04T23:00:37.674Z,7.27
2018-08-04T23:03:41.908Z,9.63
2018-08-04T23:06:46.108Z,6.33
2018-08-04T23:09:50.358Z,7.97
2018-08-04T23:12:54.629Z,8.97
2018-08-04T23:15:58.888Z,12.43
2018-08-04T23:19:03.094Z,7.27
2018-08-04T23:22:07.339Z,9.97
2018-08-04T23:25:11.561Z,7.80
2018-08-04T23:28:15.769Z,7.00
2018-08-04T23:31:20.000Z,10.57
2018-08-04T23:34:24.218Z,7.93
2018-08-04T23:37:28.426Z,7.70
2018-08-04T23:40:32.651Z,11.20
2018-08-04T23:43:36.886Z,11.33
2018-08-04T23:46:41.117Z,10.17
2018-08-04T23:49:46.136Z,8.23
2018-08-04T23:52:50.366Z,6.33
2018-08-04T23:55:54.590Z,10.80
2018-08-04T23:58:58.809Z,9.43
